KENW

Kenosha Regional Airport

Kenosha, Wisconsin, USA
METAR KENW 212353Z 07003KT 10SM CLR M03/M08 A3062 RMK AO2 SLP380 T10331083 11011 21033 53008
Observed Flight Rules
Feb-21 @ 23:53 UTC (5 hours ago) Visual Flight Rules
Wind Visibility Clouds
70° at 3 knots 10 miles
  • Clear skies
Temperatures Readings
Current -3°C / 27°F
Dewpoint -8°C / 18°F
Humidity 69%
Altimeter 30.62" Hg
Pressure 1038 hPa
Elevation 219
METAR KENW 212353Z 07003KT 10SM CLR M03/M08 A3062 RMK AO2 SLP380 T10331083 11011 21033 53008
Observed Flight Rules
Feb-21 @ 23:53 UTC
(5 hours ago)
VFR
Wind Visibility
70° at 3 knots 10 miles
Clouds
  • Clear skies
Temperature Dewpoint
-3°C / 27°F -8°C / 18°F
Humidity Altimeter Pressure
69% 30.62" Hg 1038 hPa